createdAt,value
2018-12-08T00:00:12.363Z,99.90
2018-12-08T00:02:46.533Z,99.90
2018-12-08T00:05:22.469Z,99.90
2018-12-08T00:08:06.238Z,99.90
2018-12-08T00:10:38.659Z,99.90
2018-12-08T00:13:13.904Z,99.90
2018-12-08T00:18:51.138Z,99.90
2018-12-08T00:21:32.028Z,99.90
2018-12-08T00:24:08.171Z,99.90
2018-12-08T00:26:42.968Z,99.90
2018-12-08T00:29:30.484Z,99.90
2018-12-08T00:31:59.905Z,99.90
2018-12-08T00:34:29.873Z,99.90
2018-12-08T00:36:59.334Z,99.90
2018-12-08T00:39:39.921Z,99.90
2018-12-08T00:42:14.833Z,99.90
2018-12-08T00:44:44.184Z,99.90
2018-12-08T00:47:15.697Z,99.90
2018-12-08T00:49:58.020Z,99.90
2018-12-08T00:52:33.790Z,99.90
2018-12-08T00:55:07.282Z,99.90
2018-12-08T00:57:37.776Z,99.90
2018-12-08T01:00:13.448Z,99.90
2018-12-08T01:03:10.021Z,99.90
2018-12-08T01:05:44.957Z,99.90
2018-12-08T01:08:14.317Z,99.90
2018-12-08T01:10:45.226Z,99.90
2018-12-08T01:13:22.095Z,99.90
2018-12-08T01:16:04.065Z,99.90
2018-12-08T01:18:52.041Z,99.90
2018-12-08T01:21:33.516Z,99.90
2018-12-08T01:26:57.065Z,99.90
2018-12-08T01:29:28.237Z,99.90
2018-12-08T01:32:00.022Z,99.90
2018-12-08T01:34:32.371Z,99.90
2018-12-08T01:37:18.339Z,99.90
2018-12-08T01:39:47.831Z,99.90
2018-12-08T01:42:36.199Z,99.90
2018-12-08T01:45:09.893Z,99.90
2018-12-08T01:47:47.122Z,99.90
2018-12-08T01:50:28.557Z,99.90
2018-12-08T01:53:04.469Z,99.90
2018-12-08T01:55:37.808Z,99.90
2018-12-08T01:58:25.298Z,99.90
2018-12-08T02:01:00.546Z,99.90
2018-12-08T02:03:37.596Z,99.90
2018-12-08T02:06:09.315Z,99.90
2018-12-08T02:08:42.895Z,99.90
2018-12-08T02:14:58.797Z,99.90
2018-12-08T02:17:33.489Z,99.90
2018-12-08T02:20:08.787Z,99.90
2018-12-08T02:22:46.049Z,99.90
2018-12-08T02:25:25.626Z,99.90
2018-12-08T02:28:01.566Z,99.90
2018-12-08T02:33:47.100Z,99.90
2018-12-08T02:36:29.431Z,99.90
2018-12-08T02:38:59.228Z,99.90
2018-12-08T02:41:41.836Z,99.90
2018-12-08T02:44:17.536Z,99.90
2018-12-08T02:49:53.541Z,99.90
2018-12-08T02:52:36.054Z,99.90
2018-12-08T02:55:12.122Z,99.90
2018-12-08T02:57:41.902Z,99.90
2018-12-08T03:00:45.224Z,99.90
2018-12-08T03:03:14.568Z,99.90
2018-12-08T03:05:43.955Z,99.90
2018-12-08T03:08:27.749Z,99.90
2018-12-08T03:10:57.165Z,99.90
2018-12-08T03:13:36.635Z,99.90
2018-12-08T03:16:22.819Z,99.90
2018-12-08T03:18:56.416Z,99.90
2018-12-08T03:21:37.228Z,99.90
2018-12-08T03:24:07.032Z,99.90
2018-12-08T03:26:44.489Z,99.90
2018-12-08T03:29:14.424Z,99.90
2018-12-08T03:32:01.793Z,99.90
2018-12-08T03:34:31.396Z,99.90
2018-12-08T03:37:01.358Z,99.90
2018-12-08T03:42:49.145Z,99.90
2018-12-08T03:45:31.470Z,99.90
2018-12-08T03:48:10.055Z,99.90
2018-12-08T03:53:41.459Z,99.90
2018-12-08T03:59:14.495Z,99.90
2018-12-08T04:01:55.095Z,99.90
2018-12-08T04:04:24.453Z,99.90
2018-12-08T04:06:57.875Z,99.90
2018-12-08T04:09:30.238Z,99.90
2018-12-08T04:12:04.141Z,99.90
2018-12-08T04:14:34.098Z,99.90
2018-12-08T04:17:08.091Z,99.90
2018-12-08T04:19:49.743Z,99.90
2018-12-08T04:22:23.339Z,99.90
2018-12-08T04:24:55.230Z,99.90
2018-12-08T04:27:25.106Z,99.90
2018-12-08T04:30:02.293Z,99.90
2018-12-08T04:32:38.671Z,99.90
2018-12-08T04:35:08.629Z,99.90
2018-12-08T04:37:38.515Z,99.90
2018-12-08T04:40:26.586Z,99.90
2018-12-08T04:43:06.236Z,99.90
2018-12-08T04:45:35.603Z,99.90
2018-12-08T04:48:24.536Z,99.90
2018-12-08T04:51:18.420Z,99.90
2018-12-08T04:53:52.329Z,99.90
2018-12-08T04:56:21.637Z,99.90
2018-12-08T04:58:54.991Z,99.90
2018-12-08T05:01:24.372Z,99.90
2018-12-08T05:03:54.259Z,99.90
2018-12-08T05:06:23.631Z,99.90
2018-12-08T05:08:56.803Z,99.90
2018-12-08T05:11:27.523Z,99.90
2018-12-08T05:16:55.071Z,99.90
2018-12-08T05:22:21.244Z,99.90
2018-12-08T05:28:08.464Z,99.90
2018-12-08T05:30:57.973Z,99.90
2018-12-08T05:33:27.345Z,99.90
2018-12-08T05:35:56.673Z,99.90
2018-12-08T05:38:28.762Z,99.90
2018-12-08T05:41:06.795Z,99.90
2018-12-08T05:43:36.127Z,99.90
2018-12-08T05:46:05.527Z,99.90
2018-12-08T05:48:35.991Z,99.90
2018-12-08T05:51:16.966Z,99.90
2018-12-08T05:53:46.880Z,99.90
2018-12-08T05:59:23.588Z,99.90
2018-12-08T06:01:52.964Z,99.90
2018-12-08T06:04:25.821Z,99.90
2018-12-08T06:07:01.383Z,99.90
2018-12-08T06:09:37.074Z,99.90
2018-12-08T06:12:23.289Z,99.90
2018-12-08T06:14:58.916Z,99.90
2018-12-08T06:17:33.796Z,99.90
2018-12-08T06:22:56.879Z,99.90
2018-12-08T06:25:38.481Z,99.90
2018-12-08T06:28:24.604Z,99.90
2018-12-08T06:30:54.532Z,99.90
2018-12-08T06:33:42.624Z,99.90
2018-12-08T06:36:19.841Z,99.90
2018-12-08T06:38:49.728Z,99.90
2018-12-08T06:41:25.110Z,99.90
2018-12-08T06:44:13.274Z,99.90
2018-12-08T06:52:32.492Z,99.90
2018-12-08T06:55:24.608Z,99.90
2018-12-08T07:00:48.639Z,99.90
2018-12-08T07:03:18.771Z,99.90
2018-12-08T07:05:48.119Z,99.90
2018-12-08T07:08:17.482Z,99.90
2018-12-08T07:11:06.933Z,99.90
2018-12-08T07:13:40.983Z,99.90
2018-12-08T07:16:25.048Z,99.90
2018-12-08T07:19:06.161Z,99.90
2018-12-08T07:21:53.949Z,99.90
2018-12-08T07:24:30.287Z,99.90
2018-12-08T07:30:00.557Z,99.90
2018-12-08T07:35:37.798Z,99.90
2018-12-08T07:38:13.003Z,99.90
2018-12-08T07:40:51.702Z,99.90
2018-12-08T07:43:33.210Z,99.90
2018-12-08T07:46:13.178Z,99.90
2018-12-08T07:48:46.358Z,99.90
2018-12-08T07:51:17.570Z,99.90
2018-12-08T07:56:55.404Z,99.90
2018-12-08T07:59:31.612Z,99.90
2018-12-08T08:02:13.500Z,99.90
2018-12-08T08:04:46.736Z,99.90
2018-12-08T08:07:19.523Z,99.90
2018-12-08T08:10:13.512Z,99.90
2018-12-08T08:12:53.836Z,99.90
2018-12-08T08:15:41.525Z,99.90
2018-12-08T08:18:18.041Z,99.90
2018-12-08T08:20:52.990Z,99.90
2018-12-08T08:23:38.900Z,99.90
2018-12-08T08:26:08.234Z,99.90
2018-12-08T08:28:40.762Z,99.90
2018-12-08T08:31:10.143Z,99.90
2018-12-08T08:33:40.344Z,99.90
2018-12-08T08:36:16.321Z,99.90
2018-12-08T08:38:57.951Z,99.90
2018-12-08T08:41:32.446Z,99.90
2018-12-08T08:44:05.930Z,99.90
2018-12-08T08:46:41.252Z,99.90
2018-12-08T08:53:03.132Z,99.90
2018-12-08T08:55:38.710Z,99.90
2018-12-08T08:58:11.401Z,99.90
2018-12-08T09:00:45.330Z,99.90
2018-12-08T09:03:31.764Z,99.90
2018-12-08T09:06:07.330Z,99.90
2018-12-08T09:08:43.112Z,99.90
2018-12-08T09:11:12.545Z,99.90
2018-12-08T09:13:47.780Z,99.90
2018-12-08T09:16:37.444Z,99.90
2018-12-08T09:19:10.371Z,99.90
2018-12-08T09:21:41.379Z,99.90
2018-12-08T09:24:20.796Z,99.90
2018-12-08T09:26:55.624Z,99.90
2018-12-08T09:29:25.019Z,99.90
2018-12-08T09:35:03.309Z,99.90
2018-12-08T09:37:33.142Z,99.90
2018-12-08T09:40:08.540Z,99.90
2018-12-08T09:42:44.402Z,99.90
2018-12-08T09:45:19.451Z,99.90
2018-12-08T09:48:11.159Z,99.90
2018-12-08T09:50:50.545Z,99.90
2018-12-08T09:53:29.817Z,99.90
2018-12-08T09:59:11.604Z,99.90
2018-12-08T10:01:41.004Z,99.90
2018-12-08T10:04:16.215Z,99.90
2018-12-08T10:06:52.150Z,99.90
2018-12-08T10:12:34.299Z,99.90
2018-12-08T10:15:09.308Z,99.50
2018-12-08T10:17:42.628Z,99.00
2018-12-08T10:23:21.137Z,98.30
2018-12-08T10:25:53.757Z,97.80
2018-12-08T10:28:29.471Z,97.60
2018-12-08T10:31:04.647Z,97.60
2018-12-08T10:33:58.211Z,97.90
2018-12-08T10:36:33.078Z,98.10
2018-12-08T10:39:14.537Z,98.00
2018-12-08T10:41:49.725Z,97.90
2018-12-08T10:44:25.592Z,97.90
2018-12-08T10:47:01.790Z,97.50
2018-12-08T10:50:02.712Z,97.20
2018-12-08T10:52:38.935Z,96.80
2018-12-08T10:55:18.216Z,96.20
2018-12-08T11:01:08.949Z,96.00
2018-12-08T11:03:48.596Z,95.30
2018-12-08T11:06:29.145Z,94.90
2018-12-08T11:09:17.884Z,94.60
2018-12-08T11:11:57.415Z,94.40
2018-12-08T11:14:33.292Z,94.90
2018-12-08T11:17:14.522Z,97.00
2018-12-08T11:19:43.915Z,98.20
2018-12-08T11:22:13.809Z,98.80
2018-12-08T11:27:41.547Z,99.90
2018-12-08T11:30:17.211Z,99.90
2018-12-08T11:32:46.595Z,99.90
2018-12-08T11:35:22.780Z,99.90
2018-12-08T11:37:57.942Z,99.90
2018-12-08T11:40:48.564Z,99.90
2018-12-08T11:43:32.096Z,99.90
2018-12-08T11:46:08.472Z,99.90
2018-12-08T11:51:43.751Z,99.90
2018-12-08T11:54:16.208Z,99.90
2018-12-08T11:56:49.674Z,99.90
2018-12-08T11:59:30.826Z,99.90
2018-12-08T12:02:06.733Z,99.90
2018-12-08T12:04:42.560Z,99.90
2018-12-08T12:07:13.990Z,99.90
2018-12-08T12:09:44.600Z,99.90
2018-12-08T12:12:28.267Z,99.90
2018-12-08T12:15:12.642Z,99.90
2018-12-08T12:17:48.199Z,99.90
2018-12-08T12:20:22.559Z,99.90
2018-12-08T12:22:58.068Z,99.90
2018-12-08T12:28:39.780Z,99.90
2018-12-08T12:31:14.980Z,99.90
2018-12-08T12:34:09.290Z,99.90
2018-12-08T12:36:59.631Z,99.90
2018-12-08T12:39:36.463Z,99.90
2018-12-08T12:42:05.928Z,99.90
2018-12-08T12:44:49.677Z,99.90
2018-12-08T12:47:30.830Z,99.90
2018-12-08T12:50:17.661Z,99.90
2018-12-08T12:52:50.731Z,99.90
2018-12-08T12:55:24.700Z,99.90
2018-12-08T12:58:00.263Z,99.90
2018-12-08T13:00:29.728Z,99.90
2018-12-08T13:06:09.599Z,99.90
2018-12-08T13:08:42.508Z,99.90
2018-12-08T13:11:14.533Z,99.90
2018-12-08T13:14:20.381Z,99.90
2018-12-08T13:16:57.002Z,99.90
2018-12-08T13:19:34.698Z,99.90
2018-12-08T13:25:13.465Z,99.90
2018-12-08T13:27:42.859Z,99.90
2018-12-08T13:30:22.054Z,99.90
2018-12-08T13:32:51.421Z,99.90
2018-12-08T13:35:34.853Z,99.90
2018-12-08T13:38:05.376Z,99.90
2018-12-08T13:40:52.793Z,99.90
2018-12-08T13:43:29.225Z,99.90
2018-12-08T13:46:12.769Z,99.90
2018-12-08T13:48:42.644Z,99.90
2018-12-08T13:51:24.555Z,99.90
2018-12-08T13:54:02.035Z,99.90
2018-12-08T13:56:37.409Z,99.90
2018-12-08T13:59:09.831Z,99.90
2018-12-08T14:01:39.311Z,99.90
2018-12-08T14:04:21.223Z,99.90
2018-12-08T14:06:55.248Z,99.90
2018-12-08T14:12:55.484Z,99.90
2018-12-08T14:15:28.445Z,99.90
2018-12-08T14:18:03.670Z,99.90
2018-12-08T14:20:35.434Z,99.90
2018-12-08T14:23:23.942Z,99.90
2018-12-08T14:25:55.971Z,99.90
2018-12-08T14:31:17.516Z,99.90
2018-12-08T14:34:00.292Z,99.90
2018-12-08T14:36:35.160Z,99.90
2018-12-08T14:39:16.630Z,99.90
2018-12-08T14:41:45.987Z,99.90
2018-12-08T14:44:37.322Z,99.90
2018-12-08T14:47:16.519Z,99.90
2018-12-08T14:49:51.433Z,99.90
2018-12-08T14:52:32.630Z,99.90
2018-12-08T14:55:05.400Z,99.90
2018-12-08T14:57:40.321Z,99.90
2018-12-08T15:00:21.552Z,99.90
2018-12-08T15:03:23.331Z,99.90
2018-12-08T15:05:58.475Z,99.90
2018-12-08T15:08:34.008Z,99.90
2018-12-08T15:11:09.077Z,99.90
2018-12-08T15:13:43.527Z,99.90
2018-12-08T15:16:12.852Z,99.90
2018-12-08T15:18:42.398Z,99.90
2018-12-08T15:21:17.271Z,99.90
2018-12-08T15:23:46.660Z,99.90
2018-12-08T15:26:21.656Z,99.90
2018-12-08T15:29:03.183Z,99.90
2018-12-08T15:31:38.728Z,99.90
2018-12-08T15:34:14.291Z,99.90
2018-12-08T15:36:49.833Z,99.90
2018-12-08T15:39:24.744Z,99.90
2018-12-08T15:42:08.082Z,99.90
2018-12-08T15:44:47.351Z,99.90
2018-12-08T15:47:19.987Z,99.90
2018-12-08T15:49:55.304Z,99.90
2018-12-08T15:52:28.252Z,99.90
2018-12-08T15:54:57.724Z,99.90
2018-12-08T15:57:39.639Z,99.90
2018-12-08T16:00:13.756Z,99.90
2018-12-08T16:02:50.855Z,99.90
2018-12-08T16:05:21.240Z,99.90
2018-12-08T16:08:03.084Z,99.90
2018-12-08T16:10:38.575Z,99.90
2018-12-08T16:13:14.019Z,99.90
2018-12-08T16:15:43.447Z,99.90
2018-12-08T16:18:18.405Z,99.90
2018-12-08T16:20:57.998Z,99.90
2018-12-08T16:23:39.812Z,99.90
2018-12-08T16:26:14.579Z,99.90
2018-12-08T16:28:55.748Z,99.90
2018-12-08T16:31:31.054Z,99.90
2018-12-08T16:34:06.177Z,99.90
2018-12-08T16:36:42.169Z,99.90
2018-12-08T16:39:20.542Z,99.90
2018-12-08T16:41:49.928Z,99.90
2018-12-08T16:44:20.303Z,99.90
2018-12-08T16:46:50.729Z,99.90
2018-12-08T16:49:20.183Z,99.90
2018-12-08T16:52:01.375Z,99.90
2018-12-08T16:54:34.425Z,99.90
2018-12-08T16:57:09.802Z,99.90
2018-12-08T16:59:43.531Z,99.90
2018-12-08T17:02:31.436Z,99.90
2018-12-08T17:05:06.439Z,99.90
2018-12-08T17:07:51.877Z,99.90
2018-12-08T17:10:29.083Z,99.90
2018-12-08T17:16:11.233Z,99.90
2018-12-08T17:18:53.209Z,99.90
2018-12-08T17:21:28.177Z,99.90
2018-12-08T17:24:19.540Z,99.90
2018-12-08T17:26:48.964Z,99.90
2018-12-08T17:35:03.649Z,99.90
2018-12-08T17:37:38.919Z,99.90
2018-12-08T17:40:23.160Z,99.90
2018-12-08T17:42:58.962Z,99.90
2018-12-08T17:45:40.200Z,99.90
2018-12-08T17:48:10.066Z,99.90
2018-12-08T17:50:39.491Z,99.90
2018-12-08T17:53:21.427Z,99.90
2018-12-08T17:55:57.529Z,99.90
2018-12-08T17:58:32.309Z,99.90
2018-12-08T18:01:07.232Z,99.90
2018-12-08T18:03:36.736Z,99.90
2018-12-08T18:06:11.925Z,99.90
2018-12-08T18:08:41.362Z,99.90
2018-12-08T18:14:06.979Z,99.90
2018-12-08T18:19:45.210Z,99.90
2018-12-08T18:22:30.904Z,99.90
2018-12-08T18:25:00.811Z,99.90
2018-12-08T18:30:35.856Z,99.90
2018-12-08T18:33:19.882Z,99.90
2018-12-08T18:35:49.433Z,99.90
2018-12-08T18:38:37.694Z,99.90
2018-12-08T18:41:10.343Z,99.90
2018-12-08T18:46:40.667Z,99.90
2018-12-08T18:49:29.906Z,99.90
2018-12-08T18:51:59.475Z,99.90
2018-12-08T18:54:47.629Z,99.90
2018-12-08T18:57:26.845Z,99.90
2018-12-08T19:03:04.641Z,99.90
2018-12-08T19:05:47.731Z,99.90
2018-12-08T19:08:23.106Z,99.90
2018-12-08T19:11:04.181Z,99.90
2018-12-08T19:13:33.656Z,99.90
2018-12-08T19:16:06.094Z,99.90
2018-12-08T19:18:47.899Z,99.90
2018-12-08T19:21:17.311Z,99.90
2018-12-08T19:23:46.697Z,99.90
2018-12-08T19:26:25.446Z,99.90
2018-12-08T19:28:55.009Z,99.90
2018-12-08T19:31:54.926Z,99.90
2018-12-08T19:34:36.080Z,99.90
2018-12-08T19:37:11.831Z,99.90
2018-12-08T19:39:41.247Z,99.90
2018-12-08T19:42:11.053Z,99.90
2018-12-08T19:44:52.356Z,99.90
2018-12-08T19:47:21.803Z,99.90
2018-12-08T19:49:51.197Z,99.90
2018-12-08T19:52:22.220Z,99.90
2018-12-08T19:54:54.538Z,99.90
2018-12-08T20:00:35.925Z,99.90
2018-12-08T20:03:09.773Z,99.90
2018-12-08T20:05:45.200Z,99.90
2018-12-08T20:08:37.691Z,99.90
2018-12-08T20:11:13.133Z,99.90
2018-12-08T20:16:41.632Z,99.90
2018-12-08T20:19:30.286Z,99.90
2018-12-08T20:22:11.784Z,99.90
2018-12-08T20:24:45.323Z,99.90
2018-12-08T20:27:16.882Z,99.90
2018-12-08T20:29:52.326Z,99.90
2018-12-08T20:32:27.151Z,99.90
2018-12-08T20:35:08.368Z,99.90
2018-12-08T20:37:41.224Z,99.90
2018-12-08T20:40:22.449Z,99.90
2018-12-08T20:42:59.960Z,99.90
2018-12-08T20:45:33.252Z,99.90
2018-12-08T20:48:17.026Z,99.90
2018-12-08T20:50:56.355Z,99.90
2018-12-08T20:53:39.809Z,99.90
2018-12-08T20:56:09.272Z,99.90
2018-12-08T20:58:51.169Z,99.90
2018-12-08T21:01:26.618Z,99.90
2018-12-08T21:03:56.048Z,99.90
2018-12-08T21:06:35.772Z,99.90
2018-12-08T21:09:06.563Z,99.90
2018-12-08T21:11:37.843Z,99.90
2018-12-08T21:14:19.562Z,99.90
2018-12-08T21:16:48.986Z,99.90
2018-12-08T21:19:55.523Z,99.90
2018-12-08T21:22:28.708Z,99.90
2018-12-08T21:25:10.476Z,99.90
2018-12-08T21:27:45.600Z,99.90
2018-12-08T21:30:48.068Z,99.90
2018-12-08T21:36:29.952Z,99.90
2018-12-08T21:39:08.844Z,99.90
2018-12-08T21:41:43.896Z,99.90
2018-12-08T21:44:34.064Z,99.90
2018-12-08T21:47:10.485Z,99.90
2018-12-08T21:49:58.539Z,99.90
2018-12-08T21:52:34.566Z,99.90
2018-12-08T21:55:11.510Z,99.90
2018-12-08T21:57:53.797Z,99.90
2018-12-08T22:00:35.487Z,99.90
2018-12-08T22:03:10.952Z,99.90
2018-12-08T22:05:54.846Z,99.90
2018-12-08T22:11:26.115Z,99.90
2018-12-08T22:14:01.712Z,99.90
2018-12-08T22:16:37.533Z,99.90
2018-12-08T22:19:21.022Z,99.90
2018-12-08T22:21:52.891Z,99.90
2018-12-08T22:26:59.535Z,99.90
2018-12-08T22:29:48.485Z,99.90
2018-12-08T22:32:17.936Z,99.90
2018-12-08T22:40:53.304Z,99.90
2018-12-08T22:43:35.427Z,99.90
2018-12-08T22:46:04.812Z,99.90
2018-12-08T22:48:46.877Z,99.90
2018-12-08T22:51:17.906Z,99.90
2018-12-08T22:53:55.325Z,99.90
2018-12-08T22:56:30.069Z,99.90
2018-12-08T22:59:05.109Z,99.90
2018-12-08T23:01:41.359Z,99.90
2018-12-08T23:04:29.474Z,99.90
2018-12-08T23:07:06.631Z,99.90
2018-12-08T23:09:50.750Z,99.90
2018-12-08T23:12:20.278Z,99.90
2018-12-08T23:14:52.412Z,99.90
2018-12-08T23:17:29.192Z,99.90
2018-12-08T23:20:05.847Z,99.90
2018-12-08T23:22:40.828Z,99.90
2018-12-08T23:25:32.006Z,99.90
2018-12-08T23:28:08.335Z,99.90
2018-12-08T23:30:45.839Z,99.90
2018-12-08T23:33:33.575Z,99.90
2018-12-08T23:36:16.389Z,99.90
2018-12-08T23:39:04.023Z,99.90
2018-12-08T23:41:38.235Z,99.90
2018-12-08T23:44:09.736Z,99.90
2018-12-08T23:46:39.143Z,99.90
2018-12-08T23:49:34.400Z,99.90
2018-12-08T23:52:04.255Z,99.90
2018-12-08T23:54:33.638Z,99.90
2018-12-08T23:57:03.149Z,99.90
2018-12-08T23:59:36.885Z,99.90
